sensor_id;sensor_type;location;lat;lon;timestamp;P1;durP1;ratioP1;P2;durP2;ratioP2
52534;SDS011;38443;53.164;5.802;2022-08-07T00:00:11;1999.90;;;999.90;;
52534;SDS011;38443;53.164;5.802;2022-08-07T00:02:37;1999.90;;;999.90;;
52534;SDS011;38443;53.164;5.802;2022-08-07T00:05:03;1999.90;;;999.90;;
52534;SDS011;38443;53.164;5.802;2022-08-07T00:07:29;1999.90;;;999.90;;
52534;SDS011;38443;53.164;5.802;2022-08-07T00:09:54;1999.90;;;999.90;;
52534;SDS011;38443;53.164;5.802;2022-08-07T00:12:19;1999.90;;;999.90;;
52534;SDS011;38443;53.164;5.802;2022-08-07T00:14:45;1999.90;;;999.90;;
52534;SDS011;38443;53.164;5.802;2022-08-07T00:17:10;1999.90;;;999.90;;
52534;SDS011;38443;53.164;5.802;2022-08-07T00:19:36;1999.90;;;999.90;;
52534;SDS011;38443;53.164;5.802;2022-08-07T00:22:02;1999.90;;;999.90;;
52534;SDS011;38443;53.164;5.802;2022-08-07T00:24:27;1999.90;;;999.90;;
52534;SDS011;38443;53.164;5.802;2022-08-07T00:26:53;1999.90;;;999.90;;
52534;SDS011;38443;53.164;5.802;2022-08-07T00:29:18;1999.90;;;999.90;;
52534;SDS011;38443;53.164;5.802;2022-08-07T00:31:49;1999.90;;;999.90;;
52534;SDS011;38443;53.164;5.802;2022-08-07T00:34:16;1999.90;;;999.90;;
52534;SDS011;38443;53.164;5.802;2022-08-07T00:36:42;19.95;;;18.50;;
52534;SDS011;38443;53.164;5.802;2022-08-07T00:39:07;25.58;;;23.98;;
52534;SDS011;38443;53.164;5.802;2022-08-07T00:41:33;70.72;;;67.80;;
52534;SDS011;38443;53.164;5.802;2022-08-07T00:43:58;93.05;;;89.43;;
52534;SDS011;38443;53.164;5.802;2022-08-07T00:46:24;1999.90;;;999.90;;
52534;SDS011;38443;53.164;5.802;2022-08-07T00:48:50;1999.90;;;999.90;;
52534;SDS011;38443;53.164;5.802;2022-08-07T00:51:15;83.32;;;16.90;;
52534;SDS011;38443;53.164;5.802;2022-08-07T00:53:41;1999.90;;;999.90;;
52534;SDS011;38443;53.164;5.802;2022-08-07T00:56:06;1999.90;;;999.90;;
52534;SDS011;38443;53.164;5.802;2022-08-07T00:58:32;1999.90;;;999.90;;
52534;SDS011;38443;53.164;5.802;2022-08-07T01:00:57;1999.90;;;999.90;;
52534;SDS011;38443;53.164;5.802;2022-08-07T01:03:23;1999.90;;;999.90;;
52534;SDS011;38443;53.164;5.802;2022-08-07T01:05:48;1999.90;;;999.90;;
52534;SDS011;38443;53.164;5.802;2022-08-07T01:08:15;1999.90;;;999.90;;
52534;SDS011;38443;53.164;5.802;2022-08-07T01:10:40;1999.90;;;999.90;;
52534;SDS011;38443;53.164;5.802;2022-08-07T01:13:07;1999.90;;;999.90;;
52534;SDS011;38443;53.164;5.802;2022-08-07T01:15:32;1999.90;;;999.90;;
52534;SDS011;38443;53.164;5.802;2022-08-07T01:17:58;1999.90;;;999.90;;
52534;SDS011;38443;53.164;5.802;2022-08-07T01:20:25;1999.90;;;999.90;;
52534;SDS011;38443;53.164;5.802;2022-08-07T01:22:57;1999.90;;;999.90;;
52534;SDS011;38443;53.164;5.802;2022-08-07T01:25:24;1999.90;;;999.90;;
52534;SDS011;38443;53.164;5.802;2022-08-07T01:27:49;1999.90;;;999.90;;
52534;SDS011;38443;53.164;5.802;2022-08-07T01:30:16;1999.90;;;999.90;;
52534;SDS011;38443;53.164;5.802;2022-08-07T01:32:42;23.02;;;21.42;;
52534;SDS011;38443;53.164;5.802;2022-08-07T01:35:07;12.25;;;11.05;;
52534;SDS011;38443;53.164;5.802;2022-08-07T01:37:33;10.45;;;8.25;;
52534;SDS011;38443;53.164;5.802;2022-08-07T01:39:59;10.35;;;7.50;;
52534;SDS011;38443;53.164;5.802;2022-08-07T01:42:26;12.73;;;7.97;;
52534;SDS011;38443;53.164;5.802;2022-08-07T01:44:52;10.90;;;8.25;;
52534;SDS011;38443;53.164;5.802;2022-08-07T01:47:17;11.68;;;7.95;;
52534;SDS011;38443;53.164;5.802;2022-08-07T01:49:44;10.77;;;8.10;;
52534;SDS011;38443;53.164;5.802;2022-08-07T01:52:09;13.13;;;7.85;;
52534;SDS011;38443;53.164;5.802;2022-08-07T01:54:38;9.60;;;7.65;;
52534;SDS011;38443;53.164;5.802;2022-08-07T01:57:09;11.63;;;7.68;;
52534;SDS011;38443;53.164;5.802;2022-08-07T01:59:56;10.65;;;7.00;;
52534;SDS011;38443;53.164;5.802;2022-08-07T02:05:26;78.57;;;73.78;;
52534;SDS011;38443;53.164;5.802;2022-08-07T02:07:57;13.07;;;11.73;;
52534;SDS011;38443;53.164;5.802;2022-08-07T02:10:27;12.60;;;11.30;;
52534;SDS011;38443;53.164;5.802;2022-08-07T02:12:56;17.38;;;15.85;;
52534;SDS011;38443;53.164;5.802;2022-08-07T02:15:24;68.00;;;64.78;;
52534;SDS011;38443;53.164;5.802;2022-08-07T02:17:52;152.13;;;98.43;;
52534;SDS011;38443;53.164;5.802;2022-08-07T02:20:19;55.70;;;49.78;;
52534;SDS011;38443;53.164;5.802;2022-08-07T02:22:45;12.80;;;11.07;;
52534;SDS011;38443;53.164;5.802;2022-08-07T02:25:13;20.98;;;19.27;;
52534;SDS011;38443;53.164;5.802;2022-08-07T02:27:41;1513.22;;;761.83;;
52534;SDS011;38443;53.164;5.802;2022-08-07T02:30:09;12.15;;;8.68;;
52534;SDS011;38443;53.164;5.802;2022-08-07T02:32:36;11.65;;;8.45;;
52534;SDS011;38443;53.164;5.802;2022-08-07T02:35:02;10.77;;;8.05;;
52534;SDS011;38443;53.164;5.802;2022-08-07T02:37:29;13.10;;;8.05;;
52534;SDS011;38443;53.164;5.802;2022-08-07T02:39:58;1999.90;;;999.90;;
52534;SDS011;38443;53.164;5.802;2022-08-07T02:42:25;1999.90;;;999.90;;
52534;SDS011;38443;53.164;5.802;2022-08-07T02:44:51;1999.90;;;999.90;;
52534;SDS011;38443;53.164;5.802;2022-08-07T02:47:17;32.55;;;30.50;;
52534;SDS011;38443;53.164;5.802;2022-08-07T02:49:43;63.50;;;60.60;;
52534;SDS011;38443;53.164;5.802;2022-08-07T02:52:10;67.10;;;64.05;;
52534;SDS011;38443;53.164;5.802;2022-08-07T02:54:41;261.90;;;162.10;;
52534;SDS011;38443;53.164;5.802;2022-08-07T02:57:11;12.43;;;8.90;;
52534;SDS011;38443;53.164;5.802;2022-08-07T02:59:38;68.80;;;50.45;;
52534;SDS011;38443;53.164;5.802;2022-08-07T03:02:09;11.32;;;7.72;;
52534;SDS011;38443;53.164;5.802;2022-08-07T03:04:38;11.38;;;8.02;;
52534;SDS011;38443;53.164;5.802;2022-08-07T03:07:05;1999.90;;;999.90;;
52534;SDS011;38443;53.164;5.802;2022-08-07T03:09:32;1999.90;;;999.90;;
52534;SDS011;38443;53.164;5.802;2022-08-07T03:11:58;1999.90;;;999.90;;
52534;SDS011;38443;53.164;5.802;2022-08-07T03:14:24;1999.90;;;999.90;;
52534;SDS011;38443;53.164;5.802;2022-08-07T03:16:51;1999.90;;;999.90;;
52534;SDS011;38443;53.164;5.802;2022-08-07T03:19:16;1999.90;;;999.90;;
52534;SDS011;38443;53.164;5.802;2022-08-07T03:21:42;151.52;;;145.57;;
52534;SDS011;38443;53.164;5.802;2022-08-07T03:24:07;50.58;;;47.80;;
52534;SDS011;38443;53.164;5.802;2022-08-07T03:26:33;133.80;;;73.80;;
52534;SDS011;38443;53.164;5.802;2022-08-07T03:29:02;1295.15;;;587.95;;
52534;SDS011;38443;53.164;5.802;2022-08-07T03:31:30;175.27;;;100.28;;
52534;SDS011;38443;53.164;5.802;2022-08-07T03:33:59;12.23;;;8.05;;
52534;SDS011;38443;53.164;5.802;2022-08-07T03:36:26;1133.72;;;537.03;;
52534;SDS011;38443;53.164;5.802;2022-08-07T03:38:58;16.13;;;14.60;;
52534;SDS011;38443;53.164;5.802;2022-08-07T03:41:29;17.55;;;15.85;;
52534;SDS011;38443;53.164;5.802;2022-08-07T03:43:56;17.80;;;16.20;;
52534;SDS011;38443;53.164;5.802;2022-08-07T03:46:22;55.53;;;52.33;;
52534;SDS011;38443;53.164;5.802;2022-08-07T03:48:50;1999.90;;;999.90;;
52534;SDS011;38443;53.164;5.802;2022-08-07T03:51:16;246.95;;;176.57;;
52534;SDS011;38443;53.164;5.802;2022-08-07T03:53:44;13.38;;;8.65;;
52534;SDS011;38443;53.164;5.802;2022-08-07T03:58:35;13.13;;;8.85;;
52534;SDS011;38443;53.164;5.802;2022-08-07T04:01:02;14.15;;;9.55;;
52534;SDS011;38443;53.164;5.802;2022-08-07T04:03:28;12.95;;;8.80;;
52534;SDS011;38443;53.164;5.802;2022-08-07T04:08:20;13.88;;;9.43;;
52534;SDS011;38443;53.164;5.802;2022-08-07T04:13:12;1999.90;;;999.90;;
52534;SDS011;38443;53.164;5.802;2022-08-07T04:15:40;1999.90;;;999.90;;
52534;SDS011;38443;53.164;5.802;2022-08-07T04:18:05;1999.90;;;999.90;;
52534;SDS011;38443;53.164;5.802;2022-08-07T04:22:57;1999.90;;;999.90;;
52534;SDS011;38443;53.164;5.802;2022-08-07T04:25:23;1999.90;;;999.90;;
52534;SDS011;38443;53.164;5.802;2022-08-07T04:27:50;1999.90;;;999.90;;
52534;SDS011;38443;53.164;5.802;2022-08-07T04:30:16;1999.90;;;999.90;;
52534;SDS011;38443;53.164;5.802;2022-08-07T04:35:07;10.50;;;9.45;;
52534;SDS011;38443;53.164;5.802;2022-08-07T04:37:34;13.85;;;8.68;;
52534;SDS011;38443;53.164;5.802;2022-08-07T04:40:00;12.80;;;8.45;;
52534;SDS011;38443;53.164;5.802;2022-08-07T04:42:26;1999.90;;;999.90;;
52534;SDS011;38443;53.164;5.802;2022-08-07T04:44:55;72.65;;;69.35;;
52534;SDS011;38443;53.164;5.802;2022-08-07T04:47:28;54.70;;;52.08;;
52534;SDS011;38443;53.164;5.802;2022-08-07T04:50:03;48.63;;;46.22;;
52534;SDS011;38443;53.164;5.802;2022-08-07T04:52:41;48.78;;;46.03;;
52534;SDS011;38443;53.164;5.802;2022-08-07T04:55:27;555.67;;;301.90;;
52534;SDS011;38443;53.164;5.802;2022-08-07T05:00:49;1999.90;;;999.90;;
52534;SDS011;38443;53.164;5.802;2022-08-07T05:03:28;62.53;;;58.50;;
52534;SDS011;38443;53.164;5.802;2022-08-07T05:06:08;39.60;;;37.47;;
52534;SDS011;38443;53.164;5.802;2022-08-07T05:08:47;73.28;;;69.97;;
52534;SDS011;38443;53.164;5.802;2022-08-07T05:11:23;113.57;;;109.18;;
52534;SDS011;38443;53.164;5.802;2022-08-07T05:13:54;219.07;;;206.32;;
52534;SDS011;38443;53.164;5.802;2022-08-07T05:16:24;37.55;;;35.58;;
52534;SDS011;38443;53.164;5.802;2022-08-07T05:18:55;72.05;;;68.60;;
52534;SDS011;38443;53.164;5.802;2022-08-07T05:21:26;1999.90;;;999.90;;
52534;SDS011;38443;53.164;5.802;2022-08-07T05:23:56;12.80;;;11.50;;
52534;SDS011;38443;53.164;5.802;2022-08-07T05:26:24;13.00;;;11.80;;
52534;SDS011;38443;53.164;5.802;2022-08-07T05:28:53;14.55;;;13.13;;
52534;SDS011;38443;53.164;5.802;2022-08-07T05:31:22;1999.90;;;999.90;;
52534;SDS011;38443;53.164;5.802;2022-08-07T05:33:51;1999.90;;;999.90;;
52534;SDS011;38443;53.164;5.802;2022-08-07T05:36:18;1999.90;;;999.90;;
52534;SDS011;38443;53.164;5.802;2022-08-07T05:38:46;1999.90;;;999.90;;
52534;SDS011;38443;53.164;5.802;2022-08-07T05:41:14;1999.90;;;999.90;;
52534;SDS011;38443;53.164;5.802;2022-08-07T05:43:40;1999.90;;;999.90;;
52534;SDS011;38443;53.164;5.802;2022-08-07T05:46:07;1999.90;;;999.90;;
52534;SDS011;38443;53.164;5.802;2022-08-07T05:48:34;1999.90;;;999.90;;
52534;SDS011;38443;53.164;5.802;2022-08-07T05:51:00;1999.90;;;999.90;;
52534;SDS011;38443;53.164;5.802;2022-08-07T05:53:27;1999.90;;;999.90;;
52534;SDS011;38443;53.164;5.802;2022-08-07T05:55:53;59.28;;;30.55;;
52534;SDS011;38443;53.164;5.802;2022-08-07T05:58:21;1999.90;;;999.90;;
52534;SDS011;38443;53.164;5.802;2022-08-07T06:00:48;1999.90;;;999.90;;
52534;SDS011;38443;53.164;5.802;2022-08-07T06:03:15;1999.90;;;999.90;;
52534;SDS011;38443;53.164;5.802;2022-08-07T06:05:44;1999.90;;;999.90;;
52534;SDS011;38443;53.164;5.802;2022-08-07T06:08:11;13.43;;;7.28;;
52534;SDS011;38443;53.164;5.802;2022-08-07T06:10:37;10.85;;;6.82;;
52534;SDS011;38443;53.164;5.802;2022-08-07T06:13:03;10.27;;;7.22;;
52534;SDS011;38443;53.164;5.802;2022-08-07T06:15:28;10.13;;;8.82;;
52534;SDS011;38443;53.164;5.802;2022-08-07T06:17:54;13.48;;;9.63;;
52534;SDS011;38443;53.164;5.802;2022-08-07T06:20:21;10.65;;;7.97;;
52534;SDS011;38443;53.164;5.802;2022-08-07T06:22:48;12.07;;;8.40;;
52534;SDS011;38443;53.164;5.802;2022-08-07T06:25:16;403.23;;;384.38;;
52534;SDS011;38443;53.164;5.802;2022-08-07T06:27:41;1999.90;;;999.90;;
52534;SDS011;38443;53.164;5.802;2022-08-07T06:30:07;1999.90;;;999.90;;
52534;SDS011;38443;53.164;5.802;2022-08-07T06:32:32;275.35;;;255.52;;
52534;SDS011;38443;53.164;5.802;2022-08-07T06:34:58;206.18;;;198.48;;
52534;SDS011;38443;53.164;5.802;2022-08-07T06:37:24;201.52;;;194.07;;
52534;SDS011;38443;53.164;5.802;2022-08-07T06:39:50;11.80;;;8.55;;
52534;SDS011;38443;53.164;5.802;2022-08-07T06:42:18;9.43;;;8.43;;
52534;SDS011;38443;53.164;5.802;2022-08-07T06:44:47;54.72;;;52.13;;
52534;SDS011;38443;53.164;5.802;2022-08-07T06:47:15;53.40;;;50.88;;
52534;SDS011;38443;53.164;5.802;2022-08-07T06:49:41;111.72;;;107.55;;
52534;SDS011;38443;53.164;5.802;2022-08-07T06:52:08;44.38;;;42.38;;
52534;SDS011;38443;53.164;5.802;2022-08-07T06:54:35;1999.90;;;999.90;;
52534;SDS011;38443;53.164;5.802;2022-08-07T06:57:04;1999.90;;;999.90;;
52534;SDS011;38443;53.164;5.802;2022-08-07T06:59:35;37.55;;;35.75;;
52534;SDS011;38443;53.164;5.802;2022-08-07T07:02:04;1999.90;;;999.90;;
52534;SDS011;38443;53.164;5.802;2022-08-07T07:04:32;81.00;;;77.90;;
52534;SDS011;38443;53.164;5.802;2022-08-07T07:06:58;136.10;;;131.18;;
52534;SDS011;38443;53.164;5.802;2022-08-07T07:09:25;55.78;;;53.38;;
52534;SDS011;38443;53.164;5.802;2022-08-07T07:14:31;65.00;;;62.08;;
52534;SDS011;38443;53.164;5.802;2022-08-07T07:17:02;36.00;;;34.22;;
52534;SDS011;38443;53.164;5.802;2022-08-07T07:19:32;29.90;;;6.00;;
52534;SDS011;38443;53.164;5.802;2022-08-07T07:22:02;1999.90;;;999.90;;
52534;SDS011;38443;53.164;5.802;2022-08-07T07:24:28;1999.90;;;999.90;;
52534;SDS011;38443;53.164;5.802;2022-08-07T07:26:55;1999.90;;;999.90;;
52534;SDS011;38443;53.164;5.802;2022-08-07T07:29:25;1999.90;;;999.90;;
52534;SDS011;38443;53.164;5.802;2022-08-07T07:31:54;1999.90;;;999.90;;
52534;SDS011;38443;53.164;5.802;2022-08-07T07:34:22;1999.90;;;999.90;;
52534;SDS011;38443;53.164;5.802;2022-08-07T07:36:55;268.50;;;241.75;;
52534;SDS011;38443;53.164;5.802;2022-08-07T07:39:23;6.95;;;5.13;;
52534;SDS011;38443;53.164;5.802;2022-08-07T07:41:50;7.07;;;5.13;;
52534;SDS011;38443;53.164;5.802;2022-08-07T07:44:17;5.75;;;4.13;;
52534;SDS011;38443;53.164;5.802;2022-08-07T07:46:44;6.70;;;4.68;;
52534;SDS011;38443;53.164;5.802;2022-08-07T07:49:13;5.28;;;4.13;;
52534;SDS011;38443;53.164;5.802;2022-08-07T07:51:41;7.50;;;4.93;;
52534;SDS011;38443;53.164;5.802;2022-08-07T07:54:09;6.35;;;4.85;;
52534;SDS011;38443;53.164;5.802;2022-08-07T07:56:38;5.75;;;4.60;;
52534;SDS011;38443;53.164;5.802;2022-08-07T07:59:05;5.60;;;4.13;;
52534;SDS011;38443;53.164;5.802;2022-08-07T08:01:32;6.20;;;4.32;;
52534;SDS011;38443;53.164;5.802;2022-08-07T08:04:02;1548.63;;;758.42;;
52534;SDS011;38443;53.164;5.802;2022-08-07T08:06:31;4.68;;;3.65;;
52534;SDS011;38443;53.164;5.802;2022-08-07T08:08:59;5.70;;;4.22;;
52534;SDS011;38443;53.164;5.802;2022-08-07T08:11:27;5.25;;;3.72;;
52534;SDS011;38443;53.164;5.802;2022-08-07T08:13:54;6.10;;;3.90;;
52534;SDS011;38443;53.164;5.802;2022-08-07T08:16:20;7.85;;;4.03;;
52534;SDS011;38443;53.164;5.802;2022-08-07T08:18:48;5.53;;;3.58;;
52534;SDS011;38443;53.164;5.802;2022-08-07T08:21:18;5.32;;;3.40;;
52534;SDS011;38443;53.164;5.802;2022-08-07T08:26:52;5.65;;;3.80;;
52534;SDS011;38443;53.164;5.802;2022-08-07T08:29:41;6.28;;;3.90;;
52534;SDS011;38443;53.164;5.802;2022-08-07T08:32:11;5.65;;;3.97;;
52534;SDS011;38443;53.164;5.802;2022-08-07T08:34:41;5.50;;;4.15;;
52534;SDS011;38443;53.164;5.802;2022-08-07T08:37:09;7.93;;;3.90;;
52534;SDS011;38443;53.164;5.802;2022-08-07T08:39:37;1537.15;;;785.05;;
52534;SDS011;38443;53.164;5.802;2022-08-07T08:42:09;1999.90;;;999.90;;
52534;SDS011;38443;53.164;5.802;2022-08-07T08:44:49;1999.90;;;999.90;;
52534;SDS011;38443;53.164;5.802;2022-08-07T08:48:03;1999.90;;;999.90;;
52534;SDS011;38443;53.164;5.802;2022-08-07T08:50:46;7.10;;;4.82;;
52534;SDS011;38443;53.164;5.802;2022-08-07T08:56:09;6.75;;;3.65;;
52534;SDS011;38443;53.164;5.802;2022-08-07T09:04:28;7.72;;;4.13;;
52534;SDS011;38443;53.164;5.802;2022-08-07T09:07:13;4.80;;;3.80;;
52534;SDS011;38443;53.164;5.802;2022-08-07T09:09:54;4.43;;;3.53;;
52534;SDS011;38443;53.164;5.802;2022-08-07T09:23:31;1999.90;;;999.90;;
52534;SDS011;38443;53.164;5.802;2022-08-07T09:26:23;1999.90;;;999.90;;
52534;SDS011;38443;53.164;5.802;2022-08-07T09:28:58;1999.90;;;999.90;;
52534;SDS011;38443;53.164;5.802;2022-08-07T09:34:46;1999.90;;;999.90;;
52534;SDS011;38443;53.164;5.802;2022-08-07T09:37:32;4.50;;;3.25;;
52534;SDS011;38443;53.164;5.802;2022-08-07T09:42:52;5.78;;;3.20;;
52534;SDS011;38443;53.164;5.802;2022-08-07T09:50:48;5.03;;;3.47;;
52534;SDS011;38443;53.164;5.802;2022-08-07T09:53:15;5.05;;;3.20;;
52534;SDS011;38443;53.164;5.802;2022-08-07T10:01:54;5.47;;;3.20;;
52534;SDS011;38443;53.164;5.802;2022-08-07T10:07:30;7.15;;;3.10;;
52534;SDS011;38443;53.164;5.802;2022-08-07T10:21:39;6.13;;;3.37;;
52534;SDS011;38443;53.164;5.802;2022-08-07T10:24:20;5.13;;;3.47;;
52534;SDS011;38443;53.164;5.802;2022-08-07T10:26:50;5.80;;;3.15;;
52534;SDS011;38443;53.164;5.802;2022-08-07T10:38:11;280.52;;;182.60;;
52534;SDS011;38443;53.164;5.802;2022-08-07T10:40:51;7.22;;;6.63;;
52534;SDS011;38443;53.164;5.802;2022-08-07T10:43:28;1999.90;;;999.90;;
52534;SDS011;38443;53.164;5.802;2022-08-07T10:45:59;1999.90;;;999.90;;
52534;SDS011;38443;53.164;5.802;2022-08-07T11:08:10;4.15;;;2.30;;
52534;SDS011;38443;53.164;5.802;2022-08-07T11:10:44;4.28;;;2.33;;
52534;SDS011;38443;53.164;5.802;2022-08-07T11:13:31;3.67;;;2.40;;
52534;SDS011;38443;53.164;5.802;2022-08-07T11:16:07;2.85;;;2.15;;
52534;SDS011;38443;53.164;5.802;2022-08-07T11:18:47;2.47;;;2.13;;
52534;SDS011;38443;53.164;5.802;2022-08-07T11:26:38;6.05;;;5.60;;
52534;SDS011;38443;53.164;5.802;2022-08-07T11:29:13;2.75;;;2.08;;
52534;SDS011;38443;53.164;5.802;2022-08-07T11:31:48;5.68;;;4.85;;
52534;SDS011;38443;53.164;5.802;2022-08-07T11:34:37;1544.55;;;754.83;;
52534;SDS011;38443;53.164;5.802;2022-08-07T11:37:16;4.20;;;1.85;;
52534;SDS011;38443;53.164;5.802;2022-08-07T11:43:04;3.03;;;1.80;;
52534;SDS011;38443;53.164;5.802;2022-08-07T11:45:52;2.63;;;1.70;;
52534;SDS011;38443;53.164;5.802;2022-08-07T12:07:54;3.40;;;2.22;;
52534;SDS011;38443;53.164;5.802;2022-08-07T12:10:34;2.70;;;2.15;;
52534;SDS011;38443;53.164;5.802;2022-08-07T12:13:18;3.03;;;1.85;;
52534;SDS011;38443;53.164;5.802;2022-08-07T12:15:53;3.20;;;2.20;;
52534;SDS011;38443;53.164;5.802;2022-08-07T12:18:43;2.95;;;2.33;;
52534;SDS011;38443;53.164;5.802;2022-08-07T12:24:03;4.70;;;2.60;;
52534;SDS011;38443;53.164;5.802;2022-08-07T12:26:41;3.63;;;2.50;;
52534;SDS011;38443;53.164;5.802;2022-08-07T12:29:11;4.32;;;2.42;;
52534;SDS011;38443;53.164;5.802;2022-08-07T12:34:08;4.13;;;2.60;;
52534;SDS011;38443;53.164;5.802;2022-08-07T12:36:36;3.50;;;2.65;;
52534;SDS011;38443;53.164;5.802;2022-08-07T12:39:05;4.47;;;2.90;;
52534;SDS011;38443;53.164;5.802;2022-08-07T12:41:33;4.28;;;3.10;;
52534;SDS011;38443;53.164;5.802;2022-08-07T12:44:03;4.05;;;2.83;;
52534;SDS011;38443;53.164;5.802;2022-08-07T12:46:34;5.13;;;3.20;;
52534;SDS011;38443;53.164;5.802;2022-08-07T12:49:31;3.42;;;2.92;;
52534;SDS011;38443;53.164;5.802;2022-08-07T12:52:11;4.55;;;2.97;;
52534;SDS011;38443;53.164;5.802;2022-08-07T12:57:29;5.38;;;3.00;;
52534;SDS011;38443;53.164;5.802;2022-08-07T12:59:56;3.60;;;3.00;;
52534;SDS011;38443;53.164;5.802;2022-08-07T13:02:39;5.75;;;3.15;;
52534;SDS011;38443;53.164;5.802;2022-08-07T13:05:24;4.05;;;2.70;;
52534;SDS011;38443;53.164;5.802;2022-08-07T13:13:56;790.40;;;520.05;;
52534;SDS011;38443;53.164;5.802;2022-08-07T13:16:36;4.30;;;2.80;;
52534;SDS011;38443;53.164;5.802;2022-08-07T13:22:08;4.00;;;3.10;;
52534;SDS011;38443;53.164;5.802;2022-08-07T13:24:44;4.22;;;2.67;;
52534;SDS011;38443;53.164;5.802;2022-08-07T13:27:15;4.40;;;2.85;;
52534;SDS011;38443;53.164;5.802;2022-08-07T13:32:13;5.17;;;3.23;;
52534;SDS011;38443;53.164;5.802;2022-08-07T13:34:50;32.50;;;31.10;;
52534;SDS011;38443;53.164;5.802;2022-08-07T13:42:49;4.95;;;3.42;;
52534;SDS011;38443;53.164;5.802;2022-08-07T13:45:16;5.20;;;3.47;;
52534;SDS011;38443;53.164;5.802;2022-08-07T13:47:44;55.95;;;53.38;;
52534;SDS011;38443;53.164;5.802;2022-08-07T13:50:14;439.73;;;328.95;;
52534;SDS011;38443;53.164;5.802;2022-08-07T13:52:44;74.35;;;12.70;;
52534;SDS011;38443;53.164;5.802;2022-08-07T13:55:11;256.33;;;87.55;;
52534;SDS011;38443;53.164;5.802;2022-08-07T13:57:39;5.47;;;3.78;;
52534;SDS011;38443;53.164;5.802;2022-08-07T14:00:08;1999.90;;;999.90;;
52534;SDS011;38443;53.164;5.802;2022-08-07T14:02:34;288.55;;;268.85;;
52534;SDS011;38443;53.164;5.802;2022-08-07T14:05:02;5.85;;;3.50;;
52534;SDS011;38443;53.164;5.802;2022-08-07T14:07:31;5.60;;;3.13;;
52534;SDS011;38443;53.164;5.802;2022-08-07T14:10:03;4.43;;;2.92;;
52534;SDS011;38443;53.164;5.802;2022-08-07T14:12:47;4.63;;;3.10;;
52534;SDS011;38443;53.164;5.802;2022-08-07T14:15:19;6.75;;;3.38;;
52534;SDS011;38443;53.164;5.802;2022-08-07T14:17:53;4.30;;;3.00;;
52534;SDS011;38443;53.164;5.802;2022-08-07T14:20:26;7.53;;;3.88;;
52534;SDS011;38443;53.164;5.802;2022-08-07T14:23:27;4.95;;;3.42;;
52534;SDS011;38443;53.164;5.802;2022-08-07T14:25:53;4.05;;;3.05;;
52534;SDS011;38443;53.164;5.802;2022-08-07T14:28:22;7.25;;;3.70;;
52534;SDS011;38443;53.164;5.802;2022-08-07T14:30:50;4.03;;;3.10;;
52534;SDS011;38443;53.164;5.802;2022-08-07T14:33:16;20.75;;;11.63;;
52534;SDS011;38443;53.164;5.802;2022-08-07T14:35:43;7.55;;;3.67;;
52534;SDS011;38443;53.164;5.802;2022-08-07T14:38:09;171.05;;;15.27;;
52534;SDS011;38443;53.164;5.802;2022-08-07T14:40:36;6.88;;;3.88;;
52534;SDS011;38443;53.164;5.802;2022-08-07T14:43:05;5.20;;;3.70;;
52534;SDS011;38443;53.164;5.802;2022-08-07T14:48:06;5.25;;;3.60;;
52534;SDS011;38443;53.164;5.802;2022-08-07T14:50:34;4.30;;;3.65;;
52534;SDS011;38443;53.164;5.802;2022-08-07T14:53:06;4.88;;;3.50;;
52534;SDS011;38443;53.164;5.802;2022-08-07T14:55:33;4.80;;;3.35;;
52534;SDS011;38443;53.164;5.802;2022-08-07T14:58:00;5.30;;;3.55;;
52534;SDS011;38443;53.164;5.802;2022-08-07T15:00:29;6.75;;;3.40;;
52534;SDS011;38443;53.164;5.802;2022-08-07T15:02:56;5.55;;;3.55;;
52534;SDS011;38443;53.164;5.802;2022-08-07T15:05:24;5.70;;;4.20;;
52534;SDS011;38443;53.164;5.802;2022-08-07T15:07:51;9.20;;;4.80;;
52534;SDS011;38443;53.164;5.802;2022-08-07T15:10:20;309.65;;;145.80;;
52534;SDS011;38443;53.164;5.802;2022-08-07T15:12:49;1999.90;;;999.90;;
52534;SDS011;38443;53.164;5.802;2022-08-07T15:15:22;1999.90;;;999.90;;
52534;SDS011;38443;53.164;5.802;2022-08-07T15:18:00;5.55;;;4.18;;
52534;SDS011;38443;53.164;5.802;2022-08-07T15:20:31;5.47;;;4.30;;
52534;SDS011;38443;53.164;5.802;2022-08-07T15:23:02;7.15;;;4.45;;
52534;SDS011;38443;53.164;5.802;2022-08-07T15:25:33;8.50;;;4.72;;
52534;SDS011;38443;53.164;5.802;2022-08-07T15:28:01;5.53;;;4.30;;
52534;SDS011;38443;53.164;5.802;2022-08-07T15:30:29;4.75;;;3.70;;
52534;SDS011;38443;53.164;5.802;2022-08-07T15:32:58;6.20;;;3.47;;
52534;SDS011;38443;53.164;5.802;2022-08-07T15:35:26;5.95;;;4.00;;
52534;SDS011;38443;53.164;5.802;2022-08-07T15:37:54;4.40;;;3.47;;
52534;SDS011;38443;53.164;5.802;2022-08-07T15:40:22;4.13;;;3.50;;
52534;SDS011;38443;53.164;5.802;2022-08-07T15:45:35;5.63;;;3.45;;
52534;SDS011;38443;53.164;5.802;2022-08-07T15:48:13;28.63;;;8.15;;
52534;SDS011;38443;53.164;5.802;2022-08-07T15:50:44;4.43;;;3.70;;
52534;SDS011;38443;53.164;5.802;2022-08-07T15:53:22;13.50;;;7.20;;
52534;SDS011;38443;53.164;5.802;2022-08-07T15:55:51;4.85;;;4.35;;
52534;SDS011;38443;53.164;5.802;2022-08-07T15:58:20;769.08;;;713.90;;
52534;SDS011;38443;53.164;5.802;2022-08-07T16:00:53;5.65;;;3.60;;
52534;SDS011;38443;53.164;5.802;2022-08-07T16:03:20;5.28;;;3.13;;
52534;SDS011;38443;53.164;5.802;2022-08-07T16:05:49;5.57;;;3.15;;
52534;SDS011;38443;53.164;5.802;2022-08-07T16:08:25;7.22;;;3.47;;
52534;SDS011;38443;53.164;5.802;2022-08-07T16:11:02;6.78;;;4.43;;
52534;SDS011;38443;53.164;5.802;2022-08-07T16:19:18;6.30;;;4.13;;
52534;SDS011;38443;53.164;5.802;2022-08-07T16:24:54;9.52;;;6.45;;
52534;SDS011;38443;53.164;5.802;2022-08-07T16:27:25;6.18;;;4.20;;
52534;SDS011;38443;53.164;5.802;2022-08-07T16:30:07;5.88;;;3.75;;
52534;SDS011;38443;53.164;5.802;2022-08-07T16:32:37;8.63;;;3.40;;
52534;SDS011;38443;53.164;5.802;2022-08-07T16:40:14;6.85;;;3.75;;
52534;SDS011;38443;53.164;5.802;2022-08-07T16:42:59;7.63;;;4.65;;
52534;SDS011;38443;53.164;5.802;2022-08-07T16:45:48;197.20;;;58.55;;
52534;SDS011;38443;53.164;5.802;2022-08-07T17:07:45;6.00;;;3.10;;
52534;SDS011;38443;53.164;5.802;2022-08-07T17:12:50;10.40;;;7.28;;
52534;SDS011;38443;53.164;5.802;2022-08-07T17:15:37;11.88;;;8.70;;
52534;SDS011;38443;53.164;5.802;2022-08-07T17:18:11;5.78;;;3.22;;
52534;SDS011;38443;53.164;5.802;2022-08-07T17:20:42;1999.90;;;999.90;;
52534;SDS011;38443;53.164;5.802;2022-08-07T17:28:46;1999.90;;;999.90;;
52534;SDS011;38443;53.164;5.802;2022-08-07T17:34:19;4.50;;;2.33;;
52534;SDS011;38443;53.164;5.802;2022-08-07T17:36:53;54.15;;;9.10;;
52534;SDS011;38443;53.164;5.802;2022-08-07T17:42:49;3.35;;;2.10;;
52534;SDS011;38443;53.164;5.802;2022-08-07T17:45:03;5.43;;;2.63;;
52534;SDS011;38443;53.164;5.802;2022-08-07T17:50:10;2.30;;;1.90;;
52534;SDS011;38443;53.164;5.802;2022-08-07T17:55:17;2.97;;;2.17;;
52534;SDS011;38443;53.164;5.802;2022-08-07T17:58:02;4.65;;;2.00;;
52534;SDS011;38443;53.164;5.802;2022-08-07T18:00:33;4.22;;;1.98;;
52534;SDS011;38443;53.164;5.802;2022-08-07T18:03:06;7.32;;;3.03;;
52534;SDS011;38443;53.164;5.802;2022-08-07T18:05:53;4.57;;;2.20;;
52534;SDS011;38443;53.164;5.802;2022-08-07T18:11:13;3.83;;;2.10;;
52534;SDS011;38443;53.164;5.802;2022-08-07T18:13:45;7.28;;;2.40;;
52534;SDS011;38443;53.164;5.802;2022-08-07T18:16:23;3.95;;;2.00;;